Kezdőlap
METAR-TAF:

METAR-TAF

Repülőterek :

Wallis, Franciaország

földrajzi szélesség: 13-14S, földrajzi hosszúság: 176-10W, magasság: 23 m

METAR: hiányzik

Idő: 20:04 (08:04 UTC)

Előrejelzés

A jelentés 3 órával és 4 perccel ezelõtt készült, 05:00 UTC
Az előrejelzés 23-én 06 óra UTC és 24-én 06 óra UTC között érvényes
Északnyugati szél 5 kt
Látótávolság 10 km, vagy több
Kevés felhő 1500 lábon
Szórványos felhőzet 2500 lábon
23-én 06 óra UTC és 23-én 21 óra UTC között ideiglenes
Látótávolság: 2500 m
Szakadozott felhőzet 1400 lábon
Kevés felhő 2000 lábon, Cumulonimbus.
záporok

TAF: NLWW 230500Z 2306/2406 32005KT 9999 FEW015 SCT025 TEMPO 2306/2321 2500 SHRA BKN014 FEW020CB

Meteorológiai megfigyelések és előrejelzések több, mint 4000 repülőtéren (METAR és TAF jelentéseket).

A térképen piros és sárga pontok jelzik az elérhető meteorológiai állomásokat.

Mozgassa az egeret a pont fölött, hogy megjelenjen az állomás neve.

Azután kattintson az időjárási megfigyelések és előrejelzések megtekintéséhez.

A térkép megváltoztatása: kattintson a fekete keresztel jelölt zöld gombra ráközelítéshez, a vonallal jelölt zöld gombra távolításhoz, vagy a zöld nyilakra a szomszédos térképek eléréséhez.


METAR-TAF: